sensor_id;sensor_type;location;lat;lon;timestamp;P1;durP1;ratioP1;P2;durP2;ratioP2
23714;SDS011;12036;50.858;4.472;2022-09-30T00:00:24;15.85;;;10.18;;
23714;SDS011;12036;50.858;4.472;2022-09-30T00:02:50;18.27;;;10.13;;
23714;SDS011;12036;50.858;4.472;2022-09-30T00:05:16;14.40;;;9.95;;
23714;SDS011;12036;50.858;4.472;2022-09-30T00:07:42;14.43;;;9.23;;
23714;SDS011;12036;50.858;4.472;2022-09-30T00:10:08;14.55;;;8.90;;
23714;SDS011;12036;50.858;4.472;2022-09-30T00:12:34;15.18;;;8.73;;
23714;SDS011;12036;50.858;4.472;2022-09-30T00:14:59;13.52;;;9.10;;
23714;SDS011;12036;50.858;4.472;2022-09-30T00:17:26;19.58;;;9.90;;
23714;SDS011;12036;50.858;4.472;2022-09-30T00:19:52;13.57;;;9.88;;
23714;SDS011;12036;50.858;4.472;2022-09-30T00:22:18;15.80;;;10.43;;
23714;SDS011;12036;50.858;4.472;2022-09-30T00:24:43;16.35;;;10.40;;
23714;SDS011;12036;50.858;4.472;2022-09-30T00:27:10;16.83;;;10.90;;
23714;SDS011;12036;50.858;4.472;2022-09-30T00:29:36;17.70;;;11.63;;
23714;SDS011;12036;50.858;4.472;2022-09-30T00:32:01;17.70;;;10.70;;
23714;SDS011;12036;50.858;4.472;2022-09-30T00:34:27;14.35;;;10.23;;
23714;SDS011;12036;50.858;4.472;2022-09-30T00:36:53;18.38;;;10.68;;
23714;SDS011;12036;50.858;4.472;2022-09-30T00:39:25;17.40;;;10.40;;
23714;SDS011;12036;50.858;4.472;2022-09-30T00:41:56;16.73;;;10.17;;
23714;SDS011;12036;50.858;4.472;2022-09-30T00:47:31;16.58;;;9.85;;
23714;SDS011;12036;50.858;4.472;2022-09-30T00:50:20;13.73;;;9.95;;
23714;SDS011;12036;50.858;4.472;2022-09-30T00:53:02;16.98;;;11.00;;
23714;SDS011;12036;50.858;4.472;2022-09-30T00:55:36;15.52;;;9.63;;
23714;SDS011;12036;50.858;4.472;2022-09-30T00:58:23;13.38;;;8.95;;
23714;SDS011;12036;50.858;4.472;2022-09-30T01:00:54;12.02;;;8.82;;
23714;SDS011;12036;50.858;4.472;2022-09-30T01:03:23;15.20;;;9.48;;
23714;SDS011;12036;50.858;4.472;2022-09-30T01:05:49;12.60;;;9.23;;
23714;SDS011;12036;50.858;4.472;2022-09-30T01:08:15;13.75;;;9.55;;
23714;SDS011;12036;50.858;4.472;2022-09-30T01:10:43;14.70;;;10.13;;
23714;SDS011;12036;50.858;4.472;2022-09-30T01:13:09;12.35;;;9.88;;
23714;SDS011;12036;50.858;4.472;2022-09-30T01:16:23;15.07;;;9.35;;
23714;SDS011;12036;50.858;4.472;2022-09-30T01:18:49;14.20;;;9.48;;
23714;SDS011;12036;50.858;4.472;2022-09-30T01:38:37;13.10;;;9.60;;
23714;SDS011;12036;50.858;4.472;2022-09-30T01:41:26;17.27;;;9.52;;
23714;SDS011;12036;50.858;4.472;2022-09-30T01:54:38;12.13;;;8.85;;
23714;SDS011;12036;50.858;4.472;2022-09-30T02:00:03;10.35;;;7.78;;
23714;SDS011;12036;50.858;4.472;2022-09-30T02:05:48;11.90;;;8.60;;
23714;SDS011;12036;50.858;4.472;2022-09-30T02:08:46;11.80;;;8.60;;
23714;SDS011;12036;50.858;4.472;2022-09-30T02:11:20;11.40;;;8.60;;
23714;SDS011;12036;50.858;4.472;2022-09-30T02:14:01;13.75;;;8.45;;
23714;SDS011;12036;50.858;4.472;2022-09-30T02:16:38;14.75;;;8.60;;
23714;SDS011;12036;50.858;4.472;2022-09-30T02:19:39;11.45;;;8.40;;
23714;SDS011;12036;50.858;4.472;2022-09-30T02:22:20;13.20;;;8.63;;
23714;SDS011;12036;50.858;4.472;2022-09-30T02:24:58;13.82;;;8.70;;
23714;SDS011;12036;50.858;4.472;2022-09-30T02:27:36;12.02;;;8.32;;
23714;SDS011;12036;50.858;4.472;2022-09-30T02:30:09;11.25;;;8.18;;
23714;SDS011;12036;50.858;4.472;2022-09-30T02:32:42;15.48;;;8.75;;
23714;SDS011;12036;50.858;4.472;2022-09-30T02:35:11;12.40;;;8.50;;
23714;SDS011;12036;50.858;4.472;2022-09-30T02:37:44;10.80;;;7.60;;
23714;SDS011;12036;50.858;4.472;2022-09-30T02:40:16;12.20;;;8.10;;
23714;SDS011;12036;50.858;4.472;2022-09-30T02:42:50;11.02;;;8.15;;
23714;SDS011;12036;50.858;4.472;2022-09-30T02:45:16;12.15;;;8.40;;
23714;SDS011;12036;50.858;4.472;2022-09-30T02:47:54;17.27;;;8.68;;
23714;SDS011;12036;50.858;4.472;2022-09-30T02:52:56;15.38;;;7.90;;
23714;SDS011;12036;50.858;4.472;2022-09-30T02:55:39;14.88;;;8.45;;
23714;SDS011;12036;50.858;4.472;2022-09-30T02:58:27;10.55;;;7.78;;
23714;SDS011;12036;50.858;4.472;2022-09-30T03:00:54;11.02;;;7.95;;
23714;SDS011;12036;50.858;4.472;2022-09-30T03:03:40;11.82;;;7.80;;
23714;SDS011;12036;50.858;4.472;2022-09-30T03:06:09;10.52;;;7.95;;
23714;SDS011;12036;50.858;4.472;2022-09-30T03:08:35;12.55;;;7.93;;
23714;SDS011;12036;50.858;4.472;2022-09-30T03:11:02;14.30;;;8.60;;
23714;SDS011;12036;50.858;4.472;2022-09-30T03:16:49;11.73;;;7.93;;
23714;SDS011;12036;50.858;4.472;2022-09-30T03:22:26;10.02;;;7.72;;
23714;SDS011;12036;50.858;4.472;2022-09-30T03:30:33;12.50;;;7.97;;
23714;SDS011;12036;50.858;4.472;2022-09-30T03:33:11;17.15;;;8.75;;
23714;SDS011;12036;50.858;4.472;2022-09-30T03:46:42;12.43;;;7.70;;
23714;SDS011;12036;50.858;4.472;2022-09-30T03:49:17;11.98;;;7.93;;
23714;SDS011;12036;50.858;4.472;2022-09-30T03:51:49;10.80;;;7.47;;
23714;SDS011;12036;50.858;4.472;2022-09-30T03:54:15;9.00;;;7.40;;
23714;SDS011;12036;50.858;4.472;2022-09-30T03:56:40;10.32;;;6.88;;
23714;SDS011;12036;50.858;4.472;2022-09-30T03:59:23;11.80;;;8.20;;
23714;SDS011;12036;50.858;4.472;2022-09-30T04:01:52;13.32;;;8.32;;
23714;SDS011;12036;50.858;4.472;2022-09-30T04:04:18;12.50;;;8.25;;
23714;SDS011;12036;50.858;4.472;2022-09-30T04:06:44;10.52;;;7.90;;
23714;SDS011;12036;50.858;4.472;2022-09-30T04:09:09;10.60;;;7.68;;
23714;SDS011;12036;50.858;4.472;2022-09-30T04:11:35;9.80;;;7.68;;
23714;SDS011;12036;50.858;4.472;2022-09-30T04:14:01;15.82;;;8.15;;
23714;SDS011;12036;50.858;4.472;2022-09-30T04:16:30;14.27;;;8.15;;
23714;SDS011;12036;50.858;4.472;2022-09-30T04:18:56;11.10;;;7.53;;
23714;SDS011;12036;50.858;4.472;2022-09-30T04:21:22;12.68;;;8.50;;
23714;SDS011;12036;50.858;4.472;2022-09-30T04:23:48;13.73;;;8.20;;
23714;SDS011;12036;50.858;4.472;2022-09-30T04:26:15;14.40;;;8.80;;
23714;SDS011;12036;50.858;4.472;2022-09-30T04:28:42;14.60;;;8.85;;
23714;SDS011;12036;50.858;4.472;2022-09-30T04:31:09;14.10;;;8.82;;
23714;SDS011;12036;50.858;4.472;2022-09-30T04:33:36;13.18;;;8.63;;
23714;SDS011;12036;50.858;4.472;2022-09-30T04:36:03;14.57;;;8.85;;
23714;SDS011;12036;50.858;4.472;2022-09-30T04:38:28;13.27;;;8.15;;
23714;SDS011;12036;50.858;4.472;2022-09-30T04:40:55;13.90;;;8.82;;
23714;SDS011;12036;50.858;4.472;2022-09-30T04:43:21;15.68;;;9.27;;
23714;SDS011;12036;50.858;4.472;2022-09-30T04:45:48;12.82;;;8.55;;
23714;SDS011;12036;50.858;4.472;2022-09-30T04:48:16;12.57;;;8.63;;
23714;SDS011;12036;50.858;4.472;2022-09-30T04:50:42;14.77;;;9.05;;
23714;SDS011;12036;50.858;4.472;2022-09-30T04:53:08;12.68;;;9.10;;
23714;SDS011;12036;50.858;4.472;2022-09-30T04:55:36;13.15;;;9.38;;
23714;SDS011;12036;50.858;4.472;2022-09-30T04:58:01;15.85;;;10.32;;
23714;SDS011;12036;50.858;4.472;2022-09-30T05:00:27;15.30;;;9.80;;
23714;SDS011;12036;50.858;4.472;2022-09-30T05:02:53;18.73;;;10.93;;
23714;SDS011;12036;50.858;4.472;2022-09-30T05:05:18;15.20;;;10.57;;
23714;SDS011;12036;50.858;4.472;2022-09-30T05:07:44;18.00;;;10.68;;
23714;SDS011;12036;50.858;4.472;2022-09-30T05:10:10;18.17;;;11.57;;
23714;SDS011;12036;50.858;4.472;2022-09-30T05:12:37;17.35;;;11.02;;
23714;SDS011;12036;50.858;4.472;2022-09-30T05:15:05;16.30;;;11.15;;
23714;SDS011;12036;50.858;4.472;2022-09-30T05:17:31;17.23;;;11.65;;
23714;SDS011;12036;50.858;4.472;2022-09-30T05:19:57;18.17;;;11.23;;
23714;SDS011;12036;50.858;4.472;2022-09-30T05:22:23;17.13;;;11.73;;
23714;SDS011;12036;50.858;4.472;2022-09-30T05:24:52;18.83;;;12.80;;
23714;SDS011;12036;50.858;4.472;2022-09-30T05:27:20;19.10;;;13.43;;
23714;SDS011;12036;50.858;4.472;2022-09-30T05:29:48;17.80;;;11.35;;
23714;SDS011;12036;50.858;4.472;2022-09-30T05:32:14;21.08;;;13.00;;
23714;SDS011;12036;50.858;4.472;2022-09-30T05:34:39;17.67;;;11.63;;
23714;SDS011;12036;50.858;4.472;2022-09-30T05:37:05;18.33;;;12.55;;
23714;SDS011;12036;50.858;4.472;2022-09-30T05:39:33;19.90;;;12.90;;
23714;SDS011;12036;50.858;4.472;2022-09-30T05:41:59;17.48;;;12.48;;
23714;SDS011;12036;50.858;4.472;2022-09-30T05:44:25;20.10;;;12.32;;
23714;SDS011;12036;50.858;4.472;2022-09-30T05:46:50;21.45;;;14.00;;
23714;SDS011;12036;50.858;4.472;2022-09-30T05:49:16;21.95;;;14.88;;
23714;SDS011;12036;50.858;4.472;2022-09-30T05:51:42;23.98;;;16.38;;
23714;SDS011;12036;50.858;4.472;2022-09-30T05:54:10;21.67;;;14.45;;
23714;SDS011;12036;50.858;4.472;2022-09-30T05:56:36;21.65;;;14.30;;
23714;SDS011;12036;50.858;4.472;2022-09-30T05:59:03;23.27;;;15.88;;
23714;SDS011;12036;50.858;4.472;2022-09-30T06:01:29;21.67;;;15.05;;
23714;SDS011;12036;50.858;4.472;2022-09-30T06:03:54;25.38;;;16.23;;
23714;SDS011;12036;50.858;4.472;2022-09-30T06:06:20;23.75;;;16.73;;
23714;SDS011;12036;50.858;4.472;2022-09-30T06:08:46;24.00;;;17.33;;
23714;SDS011;12036;50.858;4.472;2022-09-30T06:11:13;27.23;;;16.70;;
23714;SDS011;12036;50.858;4.472;2022-09-30T06:13:40;22.25;;;15.85;;
23714;SDS011;12036;50.858;4.472;2022-09-30T06:16:07;27.70;;;17.20;;
23714;SDS011;12036;50.858;4.472;2022-09-30T06:18:34;23.38;;;17.13;;
23714;SDS011;12036;50.858;4.472;2022-09-30T06:21:00;29.98;;;18.58;;
23714;SDS011;12036;50.858;4.472;2022-09-30T06:23:28;25.90;;;17.05;;
23714;SDS011;12036;50.858;4.472;2022-09-30T06:25:55;27.70;;;17.05;;
23714;SDS011;12036;50.858;4.472;2022-09-30T06:28:21;26.60;;;18.45;;
23714;SDS011;12036;50.858;4.472;2022-09-30T06:30:47;28.25;;;17.30;;
23714;SDS011;12036;50.858;4.472;2022-09-30T06:33:13;28.15;;;16.67;;
23714;SDS011;12036;50.858;4.472;2022-09-30T06:35:40;28.40;;;17.85;;
23714;SDS011;12036;50.858;4.472;2022-09-30T06:38:07;27.40;;;17.05;;
23714;SDS011;12036;50.858;4.472;2022-09-30T06:40:33;26.55;;;18.13;;
23714;SDS011;12036;50.858;4.472;2022-09-30T06:42:59;29.38;;;18.27;;
23714;SDS011;12036;50.858;4.472;2022-09-30T06:45:25;29.02;;;18.38;;
23714;SDS011;12036;50.858;4.472;2022-09-30T06:47:59;29.00;;;19.63;;
23714;SDS011;12036;50.858;4.472;2022-09-30T06:50:26;28.30;;;20.45;;
23714;SDS011;12036;50.858;4.472;2022-09-30T06:52:55;30.27;;;21.15;;
23714;SDS011;12036;50.858;4.472;2022-09-30T06:55:26;32.63;;;20.08;;
23714;SDS011;12036;50.858;4.472;2022-09-30T06:57:53;34.70;;;21.88;;
23714;SDS011;12036;50.858;4.472;2022-09-30T07:00:20;35.50;;;21.15;;
23714;SDS011;12036;50.858;4.472;2022-09-30T07:02:46;36.63;;;21.85;;
23714;SDS011;12036;50.858;4.472;2022-09-30T07:05:13;37.50;;;22.58;;
23714;SDS011;12036;50.858;4.472;2022-09-30T07:07:39;31.20;;;21.73;;
23714;SDS011;12036;50.858;4.472;2022-09-30T07:10:06;33.03;;;21.40;;
23714;SDS011;12036;50.858;4.472;2022-09-30T07:12:32;29.20;;;19.95;;
23714;SDS011;12036;50.858;4.472;2022-09-30T07:14:58;32.90;;;21.77;;
23714;SDS011;12036;50.858;4.472;2022-09-30T07:17:24;32.10;;;21.95;;
23714;SDS011;12036;50.858;4.472;2022-09-30T07:19:51;33.45;;;21.85;;
23714;SDS011;12036;50.858;4.472;2022-09-30T07:22:17;35.30;;;20.88;;
23714;SDS011;12036;50.858;4.472;2022-09-30T07:24:57;26.67;;;19.20;;
23714;SDS011;12036;50.858;4.472;2022-09-30T07:27:24;31.05;;;20.30;;
23714;SDS011;12036;50.858;4.472;2022-09-30T07:29:51;28.40;;;19.35;;
23714;SDS011;12036;50.858;4.472;2022-09-30T07:32:18;32.15;;;20.50;;
23714;SDS011;12036;50.858;4.472;2022-09-30T07:34:45;33.35;;;19.02;;
23714;SDS011;12036;50.858;4.472;2022-09-30T07:37:12;29.70;;;19.50;;
23714;SDS011;12036;50.858;4.472;2022-09-30T07:39:40;25.77;;;17.75;;
23714;SDS011;12036;50.858;4.472;2022-09-30T07:42:06;24.88;;;17.42;;
23714;SDS011;12036;50.858;4.472;2022-09-30T07:44:32;24.45;;;16.58;;
23714;SDS011;12036;50.858;4.472;2022-09-30T07:47:01;25.35;;;17.17;;
23714;SDS011;12036;50.858;4.472;2022-09-30T07:49:27;26.13;;;15.73;;
23714;SDS011;12036;50.858;4.472;2022-09-30T07:51:53;19.25;;;15.23;;
23714;SDS011;12036;50.858;4.472;2022-09-30T07:54:21;21.63;;;14.52;;
23714;SDS011;12036;50.858;4.472;2022-09-30T07:56:50;25.55;;;14.88;;
23714;SDS011;12036;50.858;4.472;2022-09-30T07:59:16;18.90;;;13.73;;
23714;SDS011;12036;50.858;4.472;2022-09-30T08:01:42;19.20;;;12.68;;
23714;SDS011;12036;50.858;4.472;2022-09-30T08:04:09;15.52;;;12.48;;
23714;SDS011;12036;50.858;4.472;2022-09-30T08:06:37;19.90;;;11.95;;
23714;SDS011;12036;50.858;4.472;2022-09-30T08:09:04;17.08;;;11.27;;
23714;SDS011;12036;50.858;4.472;2022-09-30T08:11:34;13.73;;;11.88;;
23714;SDS011;12036;50.858;4.472;2022-09-30T08:14:02;17.35;;;11.82;;
23714;SDS011;12036;50.858;4.472;2022-09-30T08:16:27;19.20;;;11.27;;
23714;SDS011;12036;50.858;4.472;2022-09-30T08:18:57;13.25;;;10.32;;
23714;SDS011;12036;50.858;4.472;2022-09-30T08:21:24;14.80;;;10.57;;
23714;SDS011;12036;50.858;4.472;2022-09-30T08:23:50;14.85;;;10.23;;
23714;SDS011;12036;50.858;4.472;2022-09-30T08:26:16;18.27;;;10.30;;
23714;SDS011;12036;50.858;4.472;2022-09-30T08:28:43;14.48;;;9.75;;
23714;SDS011;12036;50.858;4.472;2022-09-30T08:31:16;12.23;;;9.00;;
23714;SDS011;12036;50.858;4.472;2022-09-30T08:33:47;15.52;;;9.05;;
23714;SDS011;12036;50.858;4.472;2022-09-30T08:36:17;14.15;;;9.40;;
23714;SDS011;12036;50.858;4.472;2022-09-30T08:41:21;11.77;;;7.85;;
23714;SDS011;12036;50.858;4.472;2022-09-30T08:52:27;11.40;;;8.02;;
23714;SDS011;12036;50.858;4.472;2022-09-30T08:55:07;11.77;;;7.88;;
23714;SDS011;12036;50.858;4.472;2022-09-30T08:57:48;10.70;;;7.65;;
23714;SDS011;12036;50.858;4.472;2022-09-30T09:00:16;14.10;;;7.75;;
23714;SDS011;12036;50.858;4.472;2022-09-30T09:02:53;13.88;;;7.03;;
23714;SDS011;12036;50.858;4.472;2022-09-30T09:13:48;9.13;;;4.75;;
23714;SDS011;12036;50.858;4.472;2022-09-30T09:16:27;11.55;;;6.00;;
23714;SDS011;12036;50.858;4.472;2022-09-30T09:19:07;11.32;;;6.80;;
23714;SDS011;12036;50.858;4.472;2022-09-30T09:21:45;11.40;;;7.07;;
23714;SDS011;12036;50.858;4.472;2022-09-30T09:24:28;9.20;;;6.28;;
23714;SDS011;12036;50.858;4.472;2022-09-30T09:28:05;11.70;;;5.50;;
23714;SDS011;12036;50.858;4.472;2022-09-30T09:32:38;5.22;;;4.05;;
23714;SDS011;12036;50.858;4.472;2022-09-30T09:35:11;5.82;;;3.75;;
23714;SDS011;12036;50.858;4.472;2022-09-30T09:38:00;5.97;;;3.50;;
23714;SDS011;12036;50.858;4.472;2022-09-30T09:48:41;6.25;;;2.63;;
23714;SDS011;12036;50.858;4.472;2022-09-30T09:51:14;3.28;;;2.22;;
23714;SDS011;12036;50.858;4.472;2022-09-30T09:54:00;5.78;;;2.78;;
23714;SDS011;12036;50.858;4.472;2022-09-30T09:56:29;4.38;;;2.45;;
23714;SDS011;12036;50.858;4.472;2022-09-30T10:01:34;3.75;;;1.70;;
23714;SDS011;12036;50.858;4.472;2022-09-30T10:04:06;4.35;;;2.28;;
23714;SDS011;12036;50.858;4.472;2022-09-30T10:06:51;3.47;;;2.10;;
23714;SDS011;12036;50.858;4.472;2022-09-30T10:09:22;3.25;;;1.40;;
23714;SDS011;12036;50.858;4.472;2022-09-30T10:11:51;3.00;;;1.60;;
23714;SDS011;12036;50.858;4.472;2022-09-30T10:14:44;2.75;;;1.50;;
23714;SDS011;12036;50.858;4.472;2022-09-30T10:19:48;1.75;;;1.13;;
23714;SDS011;12036;50.858;4.472;2022-09-30T10:24:43;1.70;;;1.40;;
23714;SDS011;12036;50.858;4.472;2022-09-30T10:27:25;3.88;;;1.58;;
23714;SDS011;12036;50.858;4.472;2022-09-30T10:29:52;4.75;;;1.63;;
23714;SDS011;12036;50.858;4.472;2022-09-30T10:32:18;3.33;;;1.70;;
23714;SDS011;12036;50.858;4.472;2022-09-30T10:34:44;6.55;;;2.28;;
23714;SDS011;12036;50.858;4.472;2022-09-30T10:37:13;3.08;;;2.28;;
23714;SDS011;12036;50.858;4.472;2022-09-30T10:40:04;4.60;;;2.45;;
23714;SDS011;12036;50.858;4.472;2022-09-30T10:42:33;3.80;;;2.67;;
23714;SDS011;12036;50.858;4.472;2022-09-30T10:45:04;8.90;;;2.80;;
23714;SDS011;12036;50.858;4.472;2022-09-30T10:47:34;4.25;;;2.30;;
23714;SDS011;12036;50.858;4.472;2022-09-30T10:50:10;4.00;;;2.90;;
23714;SDS011;12036;50.858;4.472;2022-09-30T10:55:42;6.95;;;3.47;;
23714;SDS011;12036;50.858;4.472;2022-09-30T11:01:19;5.00;;;3.10;;
23714;SDS011;12036;50.858;4.472;2022-09-30T11:04:24;5.65;;;2.70;;
23714;SDS011;12036;50.858;4.472;2022-09-30T11:07:14;7.28;;;2.45;;
23714;SDS011;12036;50.858;4.472;2022-09-30T11:09:49;4.85;;;2.58;;
23714;SDS011;12036;50.858;4.472;2022-09-30T11:12:46;6.00;;;3.00;;
23714;SDS011;12036;50.858;4.472;2022-09-30T11:15:24;4.40;;;2.65;;
23714;SDS011;12036;50.858;4.472;2022-09-30T11:26:46;4.72;;;2.38;;
23714;SDS011;12036;50.858;4.472;2022-09-30T11:34:25;6.63;;;2.35;;
23714;SDS011;12036;50.858;4.472;2022-09-30T11:37:16;5.93;;;2.85;;
23714;SDS011;12036;50.858;4.472;2022-09-30T11:42:32;8.05;;;2.50;;
23714;SDS011;12036;50.858;4.472;2022-09-30T11:45:33;2.60;;;2.10;;
23714;SDS011;12036;50.858;4.472;2022-09-30T11:48:23;4.38;;;2.28;;
23714;SDS011;12036;50.858;4.472;2022-09-30T11:53:46;4.30;;;2.10;;
23714;SDS011;12036;50.858;4.472;2022-09-30T11:59:27;3.17;;;2.28;;
23714;SDS011;12036;50.858;4.472;2022-09-30T12:01:58;4.57;;;2.45;;
23714;SDS011;12036;50.858;4.472;2022-09-30T12:07:14;5.15;;;2.35;;
23714;SDS011;12036;50.858;4.472;2022-09-30T12:09:45;3.03;;;2.40;;
23714;SDS011;12036;50.858;4.472;2022-09-30T12:12:17;2.83;;;2.15;;
23714;SDS011;12036;50.858;4.472;2022-09-30T12:14:48;6.63;;;3.05;;
23714;SDS011;12036;50.858;4.472;2022-09-30T12:20:15;4.80;;;3.10;;
23714;SDS011;12036;50.858;4.472;2022-09-30T12:25:48;5.68;;;3.40;;
23714;SDS011;12036;50.858;4.472;2022-09-30T12:31:36;5.32;;;4.38;;
23714;SDS011;12036;50.858;4.472;2022-09-30T12:39:47;8.75;;;3.55;;
23714;SDS011;12036;50.858;4.472;2022-09-30T12:45:20;4.85;;;3.60;;
23714;SDS011;12036;50.858;4.472;2022-09-30T12:48:11;10.60;;;3.90;;
23714;SDS011;12036;50.858;4.472;2022-09-30T12:50:48;5.70;;;3.20;;
23714;SDS011;12036;50.858;4.472;2022-09-30T12:53:18;3.58;;;3.28;;
23714;SDS011;12036;50.858;4.472;2022-09-30T12:55:49;5.00;;;3.10;;
23714;SDS011;12036;50.858;4.472;2022-09-30T12:58:25;4.35;;;3.13;;
23714;SDS011;12036;50.858;4.472;2022-09-30T13:01:02;5.63;;;2.72;;
23714;SDS011;12036;50.858;4.472;2022-09-30T13:06:18;4.60;;;3.20;;
23714;SDS011;12036;50.858;4.472;2022-09-30T13:08:46;5.97;;;3.05;;
23714;SDS011;12036;50.858;4.472;2022-09-30T13:11:37;6.32;;;3.40;;
23714;SDS011;12036;50.858;4.472;2022-09-30T13:19:20;6.97;;;3.25;;
23714;SDS011;12036;50.858;4.472;2022-09-30T13:25:13;4.00;;;2.70;;
23714;SDS011;12036;50.858;4.472;2022-09-30T13:27:48;3.87;;;2.13;;
23714;SDS011;12036;50.858;4.472;2022-09-30T13:32:45;3.60;;;2.88;;
23714;SDS011;12036;50.858;4.472;2022-09-30T13:40:45;2.90;;;2.60;;
23714;SDS011;12036;50.858;4.472;2022-09-30T13:43:23;3.67;;;2.83;;
23714;SDS011;12036;50.858;4.472;2022-09-30T13:45:53;8.60;;;3.05;;
23714;SDS011;12036;50.858;4.472;2022-09-30T13:48:31;7.85;;;2.60;;
23714;SDS011;12036;50.858;4.472;2022-09-30T13:51:02;3.03;;;2.67;;
23714;SDS011;12036;50.858;4.472;2022-09-30T13:53:39;4.10;;;2.50;;
23714;SDS011;12036;50.858;4.472;2022-09-30T13:56:24;4.68;;;1.98;;
23714;SDS011;12036;50.858;4.472;2022-09-30T14:04:35;3.65;;;2.30;;
23714;SDS011;12036;50.858;4.472;2022-09-30T14:21:02;3.20;;;1.85;;
23714;SDS011;12036;50.858;4.472;2022-09-30T14:24:00;6.13;;;1.83;;
23714;SDS011;12036;50.858;4.472;2022-09-30T14:29:05;2.88;;;1.58;;
23714;SDS011;12036;50.858;4.472;2022-09-30T14:31:56;1.98;;;1.42;;
23714;SDS011;12036;50.858;4.472;2022-09-30T14:34:23;2.90;;;1.45;;
23714;SDS011;12036;50.858;4.472;2022-09-30T14:36:53;1.58;;;1.00;;
23714;SDS011;12036;50.858;4.472;2022-09-30T14:39:20;2.20;;;1.23;;
23714;SDS011;12036;50.858;4.472;2022-09-30T14:41:55;2.83;;;1.30;;
23714;SDS011;12036;50.858;4.472;2022-09-30T14:44:27;5.70;;;1.20;;
23714;SDS011;12036;50.858;4.472;2022-09-30T14:46:57;3.58;;;1.33;;
23714;SDS011;12036;50.858;4.472;2022-09-30T14:49:27;1.85;;;1.40;;
23714;SDS011;12036;50.858;4.472;2022-09-30T14:51:58;4.25;;;1.50;;
23714;SDS011;12036;50.858;4.472;2022-09-30T14:54:27;1.27;;;1.17;;
23714;SDS011;12036;50.858;4.472;2022-09-30T14:56:55;3.55;;;1.75;;
23714;SDS011;12036;50.858;4.472;2022-09-30T14:59:22;2.67;;;1.80;;
23714;SDS011;12036;50.858;4.472;2022-09-30T15:01:52;3.28;;;1.60;;
23714;SDS011;12036;50.858;4.472;2022-09-30T15:04:25;3.38;;;1.40;;
23714;SDS011;12036;50.858;4.472;2022-09-30T15:06:59;4.20;;;1.88;;
23714;SDS011;12036;50.858;4.472;2022-09-30T15:09:32;2.80;;;1.58;;
23714;SDS011;12036;50.858;4.472;2022-09-30T15:12:04;3.55;;;1.83;;
23714;SDS011;12036;50.858;4.472;2022-09-30T15:14:43;3.28;;;1.45;;
23714;SDS011;12036;50.858;4.472;2022-09-30T15:17:22;2.65;;;1.63;;
23714;SDS011;12036;50.858;4.472;2022-09-30T15:19:53;3.63;;;1.58;;
23714;SDS011;12036;50.858;4.472;2022-09-30T15:22:20;4.53;;;1.30;;
23714;SDS011;12036;50.858;4.472;2022-09-30T15:24:48;2.30;;;1.25;;
23714;SDS011;12036;50.858;4.472;2022-09-30T15:27:26;2.67;;;1.63;;
23714;SDS011;12036;50.858;4.472;2022-09-30T15:30:00;2.78;;;1.60;;
23714;SDS011;12036;50.858;4.472;2022-09-30T15:32:29;3.13;;;1.75;;
23714;SDS011;12036;50.858;4.472;2022-09-30T15:35:05;3.40;;;1.58;;
23714;SDS011;12036;50.858;4.472;2022-09-30T15:37:35;3.22;;;2.00;;
23714;SDS011;12036;50.858;4.472;2022-09-30T15:40:01;3.45;;;2.30;;
23714;SDS011;12036;50.858;4.472;2022-09-30T15:50:55;3.17;;;2.00;;
23714;SDS011;12036;50.858;4.472;2022-09-30T15:53:24;3.33;;;1.92;;
23714;SDS011;12036;50.858;4.472;2022-09-30T15:55:54;2.53;;;2.10;;
23714;SDS011;12036;50.858;4.472;2022-09-30T16:01:15;2.70;;;2.15;;
23714;SDS011;12036;50.858;4.472;2022-09-30T16:06:36;4.88;;;1.73;;
23714;SDS011;12036;50.858;4.472;2022-09-30T16:11:55;5.75;;;2.22;;
23714;SDS011;12036;50.858;4.472;2022-09-30T16:14:52;2.60;;;2.10;;
23714;SDS011;12036;50.858;4.472;2022-09-30T16:17:28;2.00;;;1.70;;
23714;SDS011;12036;50.858;4.472;2022-09-30T16:20:00;5.50;;;2.20;;
23714;SDS011;12036;50.858;4.472;2022-09-30T16:27:39;2.95;;;1.88;;
23714;SDS011;12036;50.858;4.472;2022-09-30T16:30:05;4.82;;;1.70;;
23714;SDS011;12036;50.858;4.472;2022-09-30T16:32:32;3.03;;;1.55;;
23714;SDS011;12036;50.858;4.472;2022-09-30T16:35:01;2.60;;;1.95;;
23714;SDS011;12036;50.858;4.472;2022-09-30T16:37:28;4.57;;;2.10;;
23714;SDS011;12036;50.858;4.472;2022-09-30T16:39:54;3.60;;;1.90;;
23714;SDS011;12036;50.858;4.472;2022-09-30T16:42:22;2.90;;;1.98;;
23714;SDS011;12036;50.858;4.472;2022-09-30T16:44:48;2.20;;;1.35;;
23714;SDS011;12036;50.858;4.472;2022-09-30T16:47:17;3.35;;;1.70;;
23714;SDS011;12036;50.858;4.472;2022-09-30T16:49:45;1.40;;;1.30;;
23714;SDS011;12036;50.858;4.472;2022-09-30T16:52:11;4.22;;;1.33;;
23714;SDS011;12036;50.858;4.472;2022-09-30T16:54:38;2.55;;;1.80;;
23714;SDS011;12036;50.858;4.472;2022-09-30T16:57:04;5.55;;;1.60;;
23714;SDS011;12036;50.858;4.472;2022-09-30T16:59:30;3.50;;;1.90;;
23714;SDS011;12036;50.858;4.472;2022-09-30T17:01:59;3.13;;;2.22;;
23714;SDS011;12036;50.858;4.472;2022-09-30T17:04:26;2.50;;;2.05;;
23714;SDS011;12036;50.858;4.472;2022-09-30T17:06:52;2.45;;;2.08;;
23714;SDS011;12036;50.858;4.472;2022-09-30T17:09:20;3.63;;;2.33;;
23714;SDS011;12036;50.858;4.472;2022-09-30T17:11:46;2.50;;;1.88;;
23714;SDS011;12036;50.858;4.472;2022-09-30T17:14:13;5.45;;;1.80;;
23714;SDS011;12036;50.858;4.472;2022-09-30T17:16:40;2.33;;;1.77;;
23714;SDS011;12036;50.858;4.472;2022-09-30T17:19:06;4.97;;;1.73;;
23714;SDS011;12036;50.858;4.472;2022-09-30T17:21:32;2.42;;;1.70;;
23714;SDS011;12036;50.858;4.472;2022-09-30T17:23:57;2.65;;;1.73;;
23714;SDS011;12036;50.858;4.472;2022-09-30T17:26:23;3.75;;;2.03;;
23714;SDS011;12036;50.858;4.472;2022-09-30T17:28:48;3.33;;;1.77;;
23714;SDS011;12036;50.858;4.472;2022-09-30T17:31:14;2.95;;;1.80;;
23714;SDS011;12036;50.858;4.472;2022-09-30T17:33:40;3.30;;;1.65;;
23714;SDS011;12036;50.858;4.472;2022-09-30T17:36:07;3.00;;;1.80;;
23714;SDS011;12036;50.858;4.472;2022-09-30T17:38:34;3.25;;;2.22;;
23714;SDS011;12036;50.858;4.472;2022-09-30T17:41:01;2.80;;;2.00;;
23714;SDS011;12036;50.858;4.472;2022-09-30T17:43:46;2.22;;;1.95;;
23714;SDS011;12036;50.858;4.472;2022-09-30T17:46:12;3.15;;;2.30;;
23714;SDS011;12036;50.858;4.472;2022-09-30T17:48:42;3.35;;;2.28;;
23714;SDS011;12036;50.858;4.472;2022-09-30T17:51:11;3.45;;;2.05;;
23714;SDS011;12036;50.858;4.472;2022-09-30T17:53:38;3.50;;;1.90;;
23714;SDS011;12036;50.858;4.472;2022-09-30T17:56:05;5.97;;;2.10;;
23714;SDS011;12036;50.858;4.472;2022-09-30T17:58:38;3.83;;;2.35;;
23714;SDS011;12036;50.858;4.472;2022-09-30T18:01:04;6.05;;;1.90;;
23714;SDS011;12036;50.858;4.472;2022-09-30T18:03:34;3.83;;;1.80;;
23714;SDS011;12036;50.858;4.472;2022-09-30T18:06:00;3.95;;;2.20;;
23714;SDS011;12036;50.858;4.472;2022-09-30T18:08:26;3.33;;;2.05;;
23714;SDS011;12036;50.858;4.472;2022-09-30T18:10:53;3.88;;;2.63;;
23714;SDS011;12036;50.858;4.472;2022-09-30T18:13:21;6.75;;;2.30;;
23714;SDS011;12036;50.858;4.472;2022-09-30T18:15:49;3.38;;;2.42;;
23714;SDS011;12036;50.858;4.472;2022-09-30T18:18:15;4.22;;;2.17;;
23714;SDS011;12036;50.858;4.472;2022-09-30T18:20:44;2.08;;;1.80;;
23714;SDS011;12036;50.858;4.472;2022-09-30T18:23:11;5.50;;;2.15;;
23714;SDS011;12036;50.858;4.472;2022-09-30T18:25:38;2.45;;;2.03;;
23714;SDS011;12036;50.858;4.472;2022-09-30T18:28:05;6.10;;;2.10;;
23714;SDS011;12036;50.858;4.472;2022-09-30T18:30:32;4.03;;;2.88;;